Time;durP1;ratioP1;P1;durP2;ratioP2;P2;SDS_P1;SDS_P2;PMS_P1;PMS_P2;Temp;Humidity;BMP_temperature;BMP_pressure;BME280_temperature;BME280_humidity;BME280_pressure;Samples;Min_cycle;Max_cycle;Signal;HPM_P1;HPM_P2
2023/11/19 00:00:26;;;;;;;5.85;5.45;;;;;;;;;;5015432;28;20471;-81
2023/11/19 00:02:52;;;;;;;6.68;5.28;;;;;;;;;;5015598;28;20442;-81
2023/11/19 00:05:18;;;;;;;5.95;5.45;;;;;;;;;;5015871;28;20392;-80
2023/11/19 00:07:44;;;;;;;5.35;4.95;;;;;;;;;;5015303;28;20396;-81
2023/11/19 00:10:11;;;;;;;6.40;5.90;;;;;;;;;;5016169;28;20381;-81
2023/11/19 00:12:38;;;;;;;6.45;5.90;;;;;;;;;;5016220;28;20396;-80
2023/11/19 00:15:04;;;;;;;6.63;6.13;;;;;;;;;;5016893;28;20391;-80
2023/11/19 00:17:30;;;;;;;7.30;6.72;;;;;;;;;;5015100;28;20447;-80
2023/11/19 00:19:56;;;;;;;6.90;6.30;;;;;;;;;;5015413;28;20392;-80
2023/11/19 00:22:22;;;;;;;6.50;5.90;;;;;;;;;;5015649;28;20404;-80
2023/11/19 00:24:48;;;;;;;6.80;6.30;;;;;;;;;;5015624;28;20429;-80
2023/11/19 00:27:15;;;;;;;6.88;6.28;;;;;;;;;;5017759;28;20944;-80
2023/11/19 00:29:42;;;;;;;6.90;6.35;;;;;;;;;;5015880;28;20405;-80
2023/11/19 00:32:08;;;;;;;7.00;6.40;;;;;;;;;;5015587;28;20471;-81
2023/11/19 00:34:34;;;;;;;7.10;6.50;;;;;;;;;;5015618;28;20482;-80
2023/11/19 00:37:00;;;;;;;7.28;6.68;;;;;;;;;;5015553;28;20392;-80
2023/11/19 00:39:26;;;;;;;6.97;6.47;;;;;;;;;;5021230;28;20407;-80
2023/11/19 00:41:52;;;;;;;7.25;6.65;;;;;;;;;;5023690;28;20416;-80
2023/11/19 00:44:19;;;;;;;6.90;6.30;;;;;;;;;;5015561;28;20437;-80
2023/11/19 00:46:45;;;;;;;7.65;7.03;;;;;;;;;;5017204;28;20822;-80
2023/11/19 00:49:11;;;;;;;8.70;8.00;;;;;;;;;;5015366;28;20392;-80
2023/11/19 00:51:37;;;;;;;8.73;8.02;;;;;;;;;;5015475;28;20831;-81
2023/11/19 00:54:04;;;;;;;7.57;6.95;;;;;;;;;;5015527;28;20392;-81
2023/11/19 00:56:30;;;;;;;8.60;7.90;;;;;;;;;;5025661;28;20469;-80
2023/11/19 00:58:56;;;;;;;9.23;8.43;;;;;;;;;;5035088;28;20383;-80
2023/11/19 01:01:22;;;;;;;9.02;8.23;;;;;;;;;;5034154;28;20852;-80
2023/11/19 01:03:48;;;;;;;8.52;7.82;;;;;;;;;;5016801;28;20399;-80
2023/11/19 01:06:15;;;;;;;7.50;6.90;;;;;;;;;;5034647;28;20391;-80
2023/11/19 01:08:44;;;;;;;7.57;6.97;;;;;;;;;;5034368;28;20410;-80
2023/11/19 01:11:20;;;;;;;7.10;6.60;;;;;;;;;;5034225;28;20399;-80
2023/11/19 01:13:46;;;;;;;8.10;7.50;;;;;;;;;;5034694;28;20390;-80
2023/11/19 01:16:13;;;;;;;8.15;7.45;;;;;;;;;;5026512;28;20381;-80
2023/11/19 01:18:39;;;;;;;7.72;7.03;;;;;;;;;;5014322;28;20409;-81
2023/11/19 01:21:05;;;;;;;7.60;7.00;;;;;;;;;;5000228;28;20396;-80
2023/11/19 01:23:32;;;;;;;6.93;6.40;;;;;;;;;;5017520;28;20858;-80
2023/11/19 01:25:58;;;;;;;7.18;6.63;;;;;;;;;;5017806;28;20439;-80
2023/11/19 01:28:24;;;;;;;7.10;6.40;;;;;;;;;;5017762;28;20388;-80
2023/11/19 01:30:53;;;;;;;7.40;6.80;;;;;;;;;;5017642;28;20823;-80
2023/11/19 01:33:19;;;;;;;7.50;6.93;;;;;;;;;;5017187;28;20389;-80
2023/11/19 01:35:45;;;;;;;7.28;6.68;;;;;;;;;;5017898;28;20404;-80
2023/11/19 01:38:11;;;;;;;7.03;6.43;;;;;;;;;;5017470;28;20739;-81
2023/11/19 01:40:37;;;;;;;7.05;6.30;;;;;;;;;;5017483;28;20407;-81
2023/11/19 01:43:04;;;;;;;6.40;5.90;;;;;;;;;;5018081;28;20462;-81
2023/11/19 01:45:31;;;;;;;6.63;6.05;;;;;;;;;;5017992;28;20388;-81
2023/11/19 01:47:58;;;;;;;6.30;5.80;;;;;;;;;;5018086;28;20401;-81
2023/11/19 01:50:24;;;;;;;6.40;5.83;;;;;;;;;;5017563;28;20389;-81
2023/11/19 01:52:51;;;;;;;6.80;6.20;;;;;;;;;;5017248;28;20389;-81
2023/11/19 01:55:17;;;;;;;6.22;5.60;;;;;;;;;;5017714;28;20393;-81
2023/11/19 01:57:43;;;;;;;6.90;6.30;;;;;;;;;;5017673;28;20481;-81
2023/11/19 02:00:11;;;;;;;6.38;5.88;;;;;;;;;;5017519;28;20449;-81
2023/11/19 02:02:39;;;;;;;6.10;5.50;;;;;;;;;;5017231;28;20417;-81
2023/11/19 02:05:05;;;;;;;5.93;5.50;;;;;;;;;;5017252;28;20746;-81
2023/11/19 02:07:32;;;;;;;5.80;5.30;;;;;;;;;;5017110;28;20831;-81
2023/11/19 02:10:01;;;;;;;5.50;5.10;;;;;;;;;;5018015;28;20969;-81
2023/11/19 02:12:36;;;;;;;5.25;4.82;;;;;;;;;;5017652;28;20388;-81
2023/11/19 02:15:03;;;;;;;5.10;4.70;;;;;;;;;;5017397;28;20421;-81
2023/11/19 02:17:34;;;;;;;4.80;4.43;;;;;;;;;;5017032;28;20392;-81
2023/11/19 02:20:00;;;;;;;4.53;4.22;;;;;;;;;;5031594;28;20387;-80
2023/11/19 02:22:26;;;;;;;4.75;4.35;;;;;;;;;;5017484;28;20407;-80
2023/11/19 02:24:59;;;;;;;4.30;4.00;;;;;;;;;;5017598;28;20751;-80
2023/11/19 02:27:25;;;;;;;4.20;3.90;;;;;;;;;;5016705;28;20396;-81
2023/11/19 02:29:51;;;;;;;3.95;3.60;;;;;;;;;;5017177;28;20431;-80
2023/11/19 02:32:17;;;;;;;3.97;3.67;;;;;;;;;;5017066;28;20420;-80
2023/11/19 02:34:43;;;;;;;4.47;3.50;;;;;;;;;;5017124;28;20395;-80
2023/11/19 02:37:09;;;;;;;4.38;3.97;;;;;;;;;;5016600;28;20743;-80
2023/11/19 02:39:36;;;;;;;4.50;4.10;;;;;;;;;;5016478;28;20982;-80
2023/11/19 02:42:02;;;;;;;4.13;3.83;;;;;;;;;;5016204;28;20416;-81
2023/11/19 02:44:30;;;;;;;5.30;4.10;;;;;;;;;;5016171;28;20381;-80
2023/11/19 02:46:59;;;;;;;4.65;4.30;;;;;;;;;;5015987;28;20380;-80
2023/11/19 02:49:25;;;;;;;4.65;4.25;;;;;;;;;;5025309;28;20390;-80
2023/11/19 02:51:51;;;;;;;4.80;4.40;;;;;;;;;;5036606;28;20446;-81
2023/11/19 02:54:17;;;;;;;5.13;4.73;;;;;;;;;;5036498;28;20446;-80
2023/11/19 02:56:43;;;;;;;5.20;4.80;;;;;;;;;;5035993;28;20384;-80
2023/11/19 02:59:26;;;;;;;5.10;4.63;;;;;;;;;;5036535;28;20413;-80
2023/11/19 03:01:53;;;;;;;5.25;4.75;;;;;;;;;;5036262;28;20410;-80
2023/11/19 03:04:20;;;;;;;4.90;4.50;;;;;;;;;;5035246;28;20387;-80
2023/11/19 03:06:46;;;;;;;6.22;4.82;;;;;;;;;;5036080;28;20797;-80
2023/11/19 03:09:12;;;;;;;5.40;4.90;;;;;;;;;;5036556;28;20390;-80
2023/11/19 03:11:39;;;;;;;5.60;5.10;;;;;;;;;;5035995;28;20720;-80
2023/11/19 03:14:05;;;;;;;5.27;4.77;;;;;;;;;;5035564;28;20379;-80
2023/11/19 03:16:31;;;;;;;5.47;5.03;;;;;;;;;;5036263;28;20384;-80
2023/11/19 03:18:57;;;;;;;5.90;5.30;;;;;;;;;;5036321;28;20441;-81
2023/11/19 03:21:29;;;;;;;5.40;4.95;;;;;;;;;;5036056;28;20900;-80
2023/11/19 03:23:55;;;;;;;5.55;5.05;;;;;;;;;;5036407;28;20399;-81
2023/11/19 03:26:22;;;;;;;5.25;4.80;;;;;;;;;;5036582;28;20410;-81
2023/11/19 03:28:48;;;;;;;5.80;5.05;;;;;;;;;;5036431;28;20387;-80
2023/11/19 03:31:14;;;;;;;5.50;5.00;;;;;;;;;;5033902;28;20387;-81
2023/11/19 03:33:40;;;;;;;5.38;4.97;;;;;;;;;;5036332;28;20390;-80
2023/11/19 03:36:07;;;;;;;5.50;5.00;;;;;;;;;;5037595;28;20387;-80
2023/11/19 03:38:33;;;;;;;5.00;4.60;;;;;;;;;;5037304;28;20383;-81
2023/11/19 03:40:59;;;;;;;5.55;5.05;;;;;;;;;;5037102;28;20414;-81
2023/11/19 03:43:25;;;;;;;5.33;4.93;;;;;;;;;;5036614;28;20433;-81
2023/11/19 03:45:51;;;;;;;5.57;5.18;;;;;;;;;;5037230;28;20466;-81
2023/11/19 03:48:17;;;;;;;5.07;4.68;;;;;;;;;;5036931;28;20436;-81
2023/11/19 03:50:43;;;;;;;5.50;5.10;;;;;;;;;;5037490;28;20824;-81
2023/11/19 03:53:09;;;;;;;5.32;4.93;;;;;;;;;;5037370;28;20383;-81
2023/11/19 03:55:35;;;;;;;6.00;5.50;;;;;;;;;;5037479;28;20387;-81
2023/11/19 03:58:01;;;;;;;5.60;5.10;;;;;;;;;;5036876;28;20491;-81
2023/11/19 04:00:27;;;;;;;5.82;5.32;;;;;;;;;;5037403;28;20833;-81
2023/11/19 04:02:53;;;;;;;6.10;5.60;;;;;;;;;;5036393;28;20406;-81
2023/11/19 04:05:19;;;;;;;6.20;5.60;;;;;;;;;;5036716;28;20411;-81
2023/11/19 04:07:45;;;;;;;5.82;5.25;;;;;;;;;;5036771;28;20383;-81
2023/11/19 04:10:11;;;;;;;6.83;6.27;;;;;;;;;;5018272;28;20795;-81
2023/11/19 04:12:37;;;;;;;6.30;5.70;;;;;;;;;;5035934;28;20390;-81
2023/11/19 04:15:04;;;;;;;6.75;6.15;;;;;;;;;;5036172;28;20841;-81
2023/11/19 04:17:30;;;;;;;6.60;6.10;;;;;;;;;;5036111;28;20896;-81
2023/11/19 04:19:56;;;;;;;7.32;6.50;;;;;;;;;;5036362;28;20458;-81
2023/11/19 04:22:22;;;;;;;7.95;7.20;;;;;;;;;;5035551;28;20414;-81
2023/11/19 04:24:48;;;;;;;8.53;7.73;;;;;;;;;;5034093;28;20398;-81
2023/11/19 04:27:14;;;;;;;9.43;8.52;;;;;;;;;;5017586;28;20419;-81
2023/11/19 04:29:40;;;;;;;10.00;9.10;;;;;;;;;;5015214;28;20439;-81
2023/11/19 04:32:07;;;;;;;11.25;10.23;;;;;;;;;;5015277;28;20393;-80
2023/11/19 04:34:33;;;;;;;11.38;10.27;;;;;;;;;;5015398;28;20412;-81
2023/11/19 04:37:02;;;;;;;11.60;10.60;;;;;;;;;;5014860;28;20392;-81
2023/11/19 04:39:28;;;;;;;11.80;10.70;;;;;;;;;;5029786;28;20398;-81
2023/11/19 04:41:54;;;;;;;12.60;11.40;;;;;;;;;;5033188;28;20530;-81
2023/11/19 04:44:20;;;;;;;12.98;11.80;;;;;;;;;;5034191;28;20891;-81
2023/11/19 04:46:46;;;;;;;13.30;12.10;;;;;;;;;;5034513;28;20383;-81
2023/11/19 04:49:16;;;;;;;13.65;12.35;;;;;;;;;;5035281;28;20456;-81
2023/11/19 04:51:43;;;;;;;13.63;12.43;;;;;;;;;;5035154;28;20441;-80
2023/11/19 04:54:09;;;;;;;13.88;12.57;;;;;;;;;;5036033;28;20383;-81
2023/11/19 04:56:37;;;;;;;14.82;13.30;;;;;;;;;;5038087;28;20375;-81
2023/11/19 04:59:03;;;;;;;15.23;13.85;;;;;;;;;;5038278;28;20938;-81
2023/11/19 05:01:29;;;;;;;14.93;13.43;;;;;;;;;;5038280;28;20402;-81
2023/11/19 05:03:59;;;;;;;15.80;14.20;;;;;;;;;;5037480;28;20840;-81
2023/11/19 05:06:27;;;;;;;15.57;14.10;;;;;;;;;;5038316;28;20444;-81
2023/11/19 05:08:53;;;;;;;14.90;13.50;;;;;;;;;;5038317;28;20414;-81
2023/11/19 05:11:20;;;;;;;14.20;12.90;;;;;;;;;;5038204;28;20391;-81
2023/11/19 05:13:46;;;;;;;13.75;12.55;;;;;;;;;;5038422;28;20390;-81
2023/11/19 05:16:15;;;;;;;14.10;12.80;;;;;;;;;;5038424;28;20406;-81
2023/11/19 05:18:41;;;;;;;13.75;12.48;;;;;;;;;;5038798;28;20385;-81
2023/11/19 05:21:07;;;;;;;14.50;13.10;;;;;;;;;;5038154;28;20415;-81
2023/11/19 05:23:34;;;;;;;13.27;12.18;;;;;;;;;;5039256;28;20482;-81
2023/11/19 05:26:00;;;;;;;13.20;12.00;;;;;;;;;;5037888;28;20383;-81
2023/11/19 05:28:26;;;;;;;13.18;12.07;;;;;;;;;;5038299;28;20375;-81
2023/11/19 05:30:52;;;;;;;13.27;12.00;;;;;;;;;;5038676;28;20879;-81
2023/11/19 05:33:18;;;;;;;12.67;11.43;;;;;;;;;;5037559;28;20442;-81
2023/11/19 05:35:44;;;;;;;13.27;11.98;;;;;;;;;;5037628;28;20383;-81
2023/11/19 05:38:10;;;;;;;12.90;11.60;;;;;;;;;;5037735;28;20842;-82
2023/11/19 05:40:38;;;;;;;12.90;11.73;;;;;;;;;;5037908;28;20375;-81
2023/11/19 05:43:05;;;;;;;12.35;11.32;;;;;;;;;;5038175;28;20469;-81
2023/11/19 05:45:31;;;;;;;12.60;11.40;;;;;;;;;;5037938;28;20379;-81
2023/11/19 05:47:57;;;;;;;12.88;11.65;;;;;;;;;;5034759;28;20852;-81
2023/11/19 05:50:23;;;;;;;11.70;10.60;;;;;;;;;;5037651;28;20395;-81
2023/11/19 05:52:49;;;;;;;11.90;10.80;;;;;;;;;;5037025;28;20379;-81
2023/11/19 05:55:15;;;;;;;12.43;11.33;;;;;;;;;;5037940;28;20444;-81
2023/11/19 05:57:41;;;;;;;11.60;10.60;;;;;;;;;;5036889;28;20379;-81
2023/11/19 06:00:08;;;;;;;11.85;10.88;;;;;;;;;;5037417;28;20898;-81
2023/11/19 06:02:36;;;;;;;11.05;10.15;;;;;;;;;;5037125;28;20425;-81
2023/11/19 06:05:05;;;;;;;11.35;10.30;;;;;;;;;;5037067;28;20477;-81
2023/11/19 06:07:31;;;;;;;11.13;10.13;;;;;;;;;;5036770;28;20383;-81
2023/11/19 06:09:57;;;;;;;10.50;9.60;;;;;;;;;;5037702;28;20403;-81
2023/11/19 06:12:23;;;;;;;10.13;9.23;;;;;;;;;;5037843;28;20852;-81
2023/11/19 06:14:49;;;;;;;10.35;9.45;;;;;;;;;;5037430;28;20387;-81
2023/11/19 06:17:15;;;;;;;9.90;9.10;;;;;;;;;;5037616;28;20417;-81
2023/11/19 06:19:41;;;;;;;10.48;9.55;;;;;;;;;;5037342;28;20391;-81
2023/11/19 06:22:07;;;;;;;10.70;9.70;;;;;;;;;;5037492;28;20411;-81
2023/11/19 06:24:33;;;;;;;10.07;9.27;;;;;;;;;;5028010;28;20460;-81
2023/11/19 06:26:59;;;;;;;10.50;9.60;;;;;;;;;;5016514;28;20383;-81
2023/11/19 06:29:25;;;;;;;9.63;8.82;;;;;;;;;;5017056;28;20420;-81
2023/11/19 06:31:51;;;;;;;9.80;8.90;;;;;;;;;;5017281;28;20460;-81
2023/11/19 06:34:17;;;;;;;9.65;8.80;;;;;;;;;;5019899;28;20389;-81
2023/11/19 06:36:46;;;;;;;12.95;9.60;;;;;;;;;;5017200;28;20398;-82
2023/11/19 06:39:12;;;;;;;10.73;9.68;;;;;;;;;;5019254;28;20403;-82
2023/11/19 06:41:39;;;;;;;10.30;9.30;;;;;;;;;;5032936;28;20458;-82
2023/11/19 06:44:05;;;;;;;9.40;8.60;;;;;;;;;;5036992;28;20387;-82
2023/11/19 06:46:31;;;;;;;9.35;8.55;;;;;;;;;;5037229;28;20710;-81
2023/11/19 06:48:57;;;;;;;9.23;8.43;;;;;;;;;;5037372;28;20395;-82
2023/11/19 06:51:29;;;;;;;9.13;8.33;;;;;;;;;;5034439;28;20529;-82
2023/11/19 06:53:55;;;;;;;7.53;6.93;;;;;;;;;;5017979;28;20779;-82
2023/11/19 06:56:22;;;;;;;8.05;7.35;;;;;;;;;;5024345;28;20388;-82
2023/11/19 06:58:48;;;;;;;7.35;6.75;;;;;;;;;;5028879;28;20389;-82
2023/11/19 07:01:15;;;;;;;7.75;7.15;;;;;;;;;;5026410;28;20795;-82
2023/11/19 07:03:41;;;;;;;7.43;6.72;;;;;;;;;;5032222;28;20430;-81
2023/11/19 07:06:07;;;;;;;7.75;7.15;;;;;;;;;;5037072;28;20380;-82
2023/11/19 07:08:33;;;;;;;8.00;7.30;;;;;;;;;;5037201;28;20387;-82
2023/11/19 07:10:59;;;;;;;7.70;7.10;;;;;;;;;;5037216;28;20406;-82
2023/11/19 07:13:27;;;;;;;7.15;6.55;;;;;;;;;;5037359;28;20394;-82
2023/11/19 07:15:53;;;;;;;7.88;7.22;;;;;;;;;;5037158;28;20477;-82
2023/11/19 07:18:21;;;;;;;8.05;7.32;;;;;;;;;;5036688;28;20493;-82
2023/11/19 07:20:47;;;;;;;7.28;6.68;;;;;;;;;;5036896;28;20427;-81
2023/11/19 07:23:16;;;;;;;7.40;6.80;;;;;;;;;;5036524;28;20444;-82
2023/11/19 07:25:42;;;;;;;7.82;7.22;;;;;;;;;;5037254;28;20395;-82
2023/11/19 07:28:09;;;;;;;7.43;6.85;;;;;;;;;;5037119;28;20856;-83
2023/11/19 07:30:36;;;;;;;7.45;6.85;;;;;;;;;;5037289;28;20387;-82
2023/11/19 07:33:03;;;;;;;7.15;6.55;;;;;;;;;;5036922;28;20470;-82
2023/11/19 07:35:33;;;;;;;6.82;6.22;;;;;;;;;;5036908;28;20379;-82
2023/11/19 07:37:59;;;;;;;7.15;6.53;;;;;;;;;;5037003;28;20880;-83
2023/11/19 07:40:25;;;;;;;6.50;6.00;;;;;;;;;;5036601;28;20387;-82
2023/11/19 07:42:51;;;;;;;6.78;6.18;;;;;;;;;;5035156;28;20422;-84
2023/11/19 07:45:32;;;;;;;6.55;6.05;;;;;;;;;;5033467;28;20737;-83
2023/11/19 07:47:58;;;;;;;6.80;6.30;;;;;;;;;;5037901;28;20474;-83
2023/11/19 07:50:25;;;;;;;5.55;5.13;;;;;;;;;;5037037;28;20938;-83
2023/11/19 07:52:51;;;;;;;6.00;5.50;;;;;;;;;;5038302;28;20383;-83
2023/11/19 07:55:17;;;;;;;5.50;5.10;;;;;;;;;;5038080;28;20406;-83
2023/11/19 07:57:43;;;;;;;5.45;5.05;;;;;;;;;;5038428;28;20745;-83
2023/11/19 08:00:12;;;;;;;5.25;4.85;;;;;;;;;;5039430;28;20390;-84
2023/11/19 08:02:38;;;;;;;5.30;4.90;;;;;;;;;;5038714;28;20415;-83
2023/11/19 08:05:04;;;;;;;5.68;5.20;;;;;;;;;;5039098;28;20387;-83
2023/11/19 08:07:31;;;;;;;5.10;4.70;;;;;;;;;;5037638;28;20462;-83
2023/11/19 08:09:57;;;;;;;4.97;4.57;;;;;;;;;;5039062;28;20383;-83
2023/11/19 08:12:23;;;;;;;4.70;4.35;;;;;;;;;;5038772;28;20395;-83
2023/11/19 08:14:49;;;;;;;5.13;4.72;;;;;;;;;;5039624;28;20439;-83
2023/11/19 08:17:16;;;;;;;5.07;4.68;;;;;;;;;;5038724;28;20425;-83
2023/11/19 08:19:42;;;;;;;4.78;4.38;;;;;;;;;;5038754;28;20387;-83
2023/11/19 08:22:08;;;;;;;4.60;4.20;;;;;;;;;;5038347;28;20546;-83
2023/11/19 08:24:36;;;;;;;4.50;4.20;;;;;;;;;;5038874;28;20379;-83
2023/11/19 08:27:01;;;;;;;4.72;4.32;;;;;;;;;;5039405;28;20419;-83
2023/11/19 08:29:28;;;;;;;4.60;4.20;;;;;;;;;;5038278;28;20416;-83
2023/11/19 08:31:54;;;;;;;4.25;3.85;;;;;;;;;;5038386;28;20387;-83
2023/11/19 08:34:20;;;;;;;4.88;4.47;;;;;;;;;;5039434;28;20391;-83
2023/11/19 08:36:46;;;;;;;4.80;4.40;;;;;;;;;;5021237;28;20770;-83
2023/11/19 08:39:13;;;;;;;4.35;4.05;;;;;;;;;;5018397;28;20451;-83
2023/11/19 08:41:41;;;;;;;5.30;4.80;;;;;;;;;;5018786;28;20384;-83
2023/11/19 08:44:07;;;;;;;5.95;5.03;;;;;;;;;;5023076;28;20386;-83
2023/11/19 08:46:33;;;;;;;5.63;5.23;;;;;;;;;;5038550;28;20393;-83
2023/11/19 08:49:00;;;;;;;5.03;4.63;;;;;;;;;;5038367;28;20390;-83
2023/11/19 08:51:26;;;;;;;5.22;4.82;;;;;;;;;;5020282;28;20417;-83
2023/11/19 08:53:52;;;;;;;5.40;4.90;;;;;;;;;;5038220;28;20391;-83
2023/11/19 08:56:18;;;;;;;5.30;4.80;;;;;;;;;;5038087;28;20387;-83
2023/11/19 08:58:44;;;;;;;4.60;4.30;;;;;;;;;;5039129;28;20459;-83
2023/11/19 09:01:10;;;;;;;7.50;4.43;;;;;;;;;;5038594;28;20394;-83
2023/11/19 09:03:36;;;;;;;4.17;3.87;;;;;;;;;;5037310;28;20438;-83
2023/11/19 09:06:02;;;;;;;4.40;3.70;;;;;;;;;;5038578;28;20528;-83
2023/11/19 09:08:29;;;;;;;3.92;3.63;;;;;;;;;;5037834;28;20387;-83
2023/11/19 09:10:55;;;;;;;3.57;3.27;;;;;;;;;;5037780;28;20462;-83
2023/11/19 09:13:21;;;;;;;2.80;2.60;;;;;;;;;;5038844;28;20410;-83
2023/11/19 09:15:46;;;;;;;2.92;2.72;;;;;;;;;;5036131;28;20379;-82
2023/11/19 09:18:13;;;;;;;2.77;2.40;;;;;;;;;;5037722;28;20796;-83
2023/11/19 09:20:39;;;;;;;2.45;2.25;;;;;;;;;;5038655;28;20380;-82
2023/11/19 09:23:06;;;;;;;2.58;2.38;;;;;;;;;;5037427;28;20419;-83
2023/11/19 09:25:32;;;;;;;2.47;2.28;;;;;;;;;;5038468;28;20426;-83
2023/11/19 09:27:58;;;;;;;2.22;2.03;;;;;;;;;;5037839;28;20387;-83
2023/11/19 09:30:24;;;;;;;2.00;1.90;;;;;;;;;;5037628;28;20391;-83
2023/11/19 09:32:50;;;;;;;1.80;1.70;;;;;;;;;;5036392;28;20418;-83
2023/11/19 09:35:16;;;;;;;1.50;1.40;;;;;;;;;;5037860;28;20461;-83
2023/11/19 09:37:42;;;;;;;2.15;1.60;;;;;;;;;;5036962;28;20466;-83
2023/11/19 09:40:09;;;;;;;1.40;1.30;;;;;;;;;;5038756;28;20402;-83
2023/11/19 09:42:41;;;;;;;2.00;1.52;;;;;;;;;;5040765;28;20757;-83
2023/11/19 09:45:13;;;;;;;1.53;1.43;;;;;;;;;;5039780;28;20391;-83
2023/11/19 09:47:39;;;;;;;1.23;1.13;;;;;;;;;;5022034;28;20383;-83
2023/11/19 09:50:05;;;;;;;1.25;1.02;;;;;;;;;;5040026;28;20399;-83
2023/11/19 09:52:31;;;;;;;1.20;1.10;;;;;;;;;;5040408;28;20445;-83
2023/11/19 09:54:57;;;;;;;0.80;0.80;;;;;;;;;;5040261;28;20391;-83
2023/11/19 09:57:23;;;;;;;1.10;1.00;;;;;;;;;;5039370;28;20464;-83
2023/11/19 09:59:50;;;;;;;1.48;0.90;;;;;;;;;;5039950;28;20430;-83
2023/11/19 10:02:17;;;;;;;1.02;0.85;;;;;;;;;;5039499;28;20886;-83
2023/11/19 10:04:44;;;;;;;0.90;0.80;;;;;;;;;;5040033;28;20415;-83
2023/11/19 10:07:10;;;;;;;0.65;0.65;;;;;;;;;;5039828;28;20432;-83
2023/11/19 10:09:36;;;;;;;1.10;0.73;;;;;;;;;;5040597;28;20859;-83
2023/11/19 10:12:02;;;;;;;0.68;0.68;;;;;;;;;;5039261;28;20391;-83
2023/11/19 10:14:29;;;;;;;0.60;0.60;;;;;;;;;;5039388;28;20861;-84
2023/11/19 10:16:56;;;;;;;0.60;0.60;;;;;;;;;;5039861;28;20392;-83
2023/11/19 10:19:22;;;;;;;1.33;0.60;;;;;;;;;;5021401;28;20391;-83
2023/11/19 10:21:48;;;;;;;1.67;0.80;;;;;;;;;;5038939;28;20457;-83
2023/11/19 10:24:15;;;;;;;0.63;0.60;;;;;;;;;;5038633;28;20398;-83
2023/11/19 10:26:42;;;;;;;0.57;0.55;;;;;;;;;;5038821;28;20379;-83
2023/11/19 10:29:08;;;;;;;0.50;0.40;;;;;;;;;;5038848;28;20387;-83
2023/11/19 10:31:34;;;;;;;0.60;0.50;;;;;;;;;;5020997;28;20876;-83
2023/11/19 10:34:00;;;;;;;0.57;0.57;;;;;;;;;;5020707;28;20399;-83
2023/11/19 10:36:40;;;;;;;0.77;0.47;;;;;;;;;;5030132;28;20847;-83
2023/11/19 10:39:08;;;;;;;1.25;0.50;;;;;;;;;;5019503;28;20396;-83
2023/11/19 10:41:34;;;;;;;0.50;0.50;;;;;;;;;;5021657;28;20400;-83
2023/11/19 10:44:00;;;;;;;0.60;0.50;;;;;;;;;;5019101;28;20412;-83
2023/11/19 10:46:43;;;;;;;0.50;0.50;;;;;;;;;;5019651;28;20408;-83
2023/11/19 10:49:12;;;;;;;0.50;0.50;;;;;;;;;;5019694;28;20417;-83
2023/11/19 10:51:43;;;;;;;0.53;0.50;;;;;;;;;;5018702;28;20385;-83
2023/11/19 10:54:10;;;;;;;0.77;0.50;;;;;;;;;;5019832;28;20454;-83
2023/11/19 10:56:36;;;;;;;0.55;0.47;;;;;;;;;;5019139;28;20381;-83
2023/11/19 10:59:05;;;;;;;1.00;0.60;;;;;;;;;;5030886;28;20419;-83
2023/11/19 11:01:45;;;;;;;0.50;0.50;;;;;;;;;;5038032;28;20386;-83
2023/11/19 11:04:23;;;;;;;1.20;0.60;;;;;;;;;;5038806;28;20399;-83
2023/11/19 11:06:50;;;;;;;0.60;0.60;;;;;;;;;;5039153;28;20879;-83
2023/11/19 11:09:16;;;;;;;0.83;0.70;;;;;;;;;;5038772;28;20390;-83
2023/11/19 11:11:46;;;;;;;0.77;0.50;;;;;;;;;;5038245;28;20379;-83
2023/11/19 11:14:14;;;;;;;0.47;0.43;;;;;;;;;;5038153;28;20410;-83
2023/11/19 11:16:44;;;;;;;0.50;0.45;;;;;;;;;;5038835;28;20714;-83
2023/11/19 11:19:11;;;;;;;0.80;0.60;;;;;;;;;;5038472;28;20418;-83
2023/11/19 11:21:39;;;;;;;0.80;0.73;;;;;;;;;;5038753;28;20379;-83
2023/11/19 11:24:05;;;;;;;0.98;0.85;;;;;;;;;;5038382;28;20782;-83
2023/11/19 11:26:43;;;;;;;0.73;0.70;;;;;;;;;;5038089;28;20421;-83
2023/11/19 11:29:11;;;;;;;1.25;0.90;;;;;;;;;;5037920;28;20371;-83
2023/11/19 11:31:44;;;;;;;0.80;0.80;;;;;;;;;;5037932;28;20384;-83
2023/11/19 11:34:19;;;;;;;2.63;1.20;;;;;;;;;;5038233;28;20376;-83
2023/11/19 11:37:04;;;;;;;1.40;1.30;;;;;;;;;;5038562;28;20415;-83
2023/11/19 11:39:30;;;;;;;1.13;1.02;;;;;;;;;;5037891;28;20371;-83
2023/11/19 11:42:20;;;;;;;0.90;0.90;;;;;;;;;;5038520;28;20753;-83
2023/11/19 11:45:09;;;;;;;1.08;0.98;;;;;;;;;;5027410;28;20459;-83
2023/11/19 11:47:45;;;;;;;0.80;0.80;;;;;;;;;;5037863;28;20387;-83
2023/11/19 11:50:12;;;;;;;0.75;0.60;;;;;;;;;;5038617;28;20394;-83
2023/11/19 11:53:00;;;;;;;0.70;0.70;;;;;;;;;;5038755;28;20391;-83
2023/11/19 11:55:34;;;;;;;0.60;0.60;;;;;;;;;;5038441;28;20425;-83
2023/11/19 11:58:00;;;;;;;1.58;0.70;;;;;;;;;;5036743;28;20430;-83
2023/11/19 12:00:39;;;;;;;0.85;0.85;;;;;;;;;;5036186;28;20410;-83
2023/11/19 12:03:06;;;;;;;0.90;0.70;;;;;;;;;;5037120;28;20431;-83
2023/11/19 12:05:34;;;;;;;0.60;0.60;;;;;;;;;;5037831;28;20388;-83
2023/11/19 12:08:07;;;;;;;0.80;0.57;;;;;;;;;;5020172;28;20895;-83
2023/11/19 12:10:53;;;;;;;1.80;0.70;;;;;;;;;;5037732;28;20397;-83
2023/11/19 12:13:21;;;;;;;0.93;0.70;;;;;;;;;;5038375;28;20841;-83
2023/11/19 12:15:56;;;;;;;0.70;0.70;;;;;;;;;;5037339;28;20379;-83
2023/11/19 12:18:27;;;;;;;0.90;0.50;;;;;;;;;;5037489;28;20420;-83
2023/11/19 12:20:53;;;;;;;0.93;0.60;;;;;;;;;;5038095;28;20383;-83
2023/11/19 12:23:18;;;;;;;0.80;0.50;;;;;;;;;;5037420;28;20441;-83
2023/11/19 12:25:45;;;;;;;0.67;0.60;;;;;;;;;;5037419;28;20467;-83
2023/11/19 12:28:17;;;;;;;1.00;0.77;;;;;;;;;;5037616;28;20429;-83
2023/11/19 12:30:43;;;;;;;0.63;0.60;;;;;;;;;;5038020;28;20474;-83
2023/11/19 12:33:10;;;;;;;1.23;0.63;;;;;;;;;;5038513;28;20872;-83
2023/11/19 12:35:42;;;;;;;0.98;0.60;;;;;;;;;;5035089;28;20474;-81
2023/11/19 12:38:09;;;;;;;0.60;0.60;;;;;;;;;;5036114;28;20431;-81
2023/11/19 12:40:35;;;;;;;1.10;0.60;;;;;;;;;;5030754;28;20399;-80
2023/11/19 12:43:01;;;;;;;1.50;0.70;;;;;;;;;;5029302;28;21002;-81
2023/11/19 12:45:37;;;;;;;1.50;0.52;;;;;;;;;;5035317;28;20387;-81
2023/11/19 12:48:07;;;;;;;0.65;0.55;;;;;;;;;;5036557;28;20386;-81
2023/11/19 12:50:53;;;;;;;1.80;0.60;;;;;;;;;;5036754;28;20383;-82
2023/11/19 12:53:19;;;;;;;1.08;0.77;;;;;;;;;;5035986;28;20380;-81
2023/11/19 12:55:45;;;;;;;1.42;0.80;;;;;;;;;;5036032;28;20840;-81
2023/11/19 12:58:11;;;;;;;0.88;0.70;;;;;;;;;;5036438;28;20386;-81
2023/11/19 13:00:37;;;;;;;0.80;0.60;;;;;;;;;;5036448;28;20493;-81
2023/11/19 13:03:03;;;;;;;1.33;0.75;;;;;;;;;;5035241;28;20410;-81
2023/11/19 13:05:36;;;;;;;0.70;0.60;;;;;;;;;;5034280;28;20434;-81
2023/11/19 13:08:02;;;;;;;0.90;0.77;;;;;;;;;;5035654;28;20915;-81
2023/11/19 13:10:29;;;;;;;0.85;0.60;;;;;;;;;;5035730;28;20436;-81
2023/11/19 13:13:11;;;;;;;1.15;0.93;;;;;;;;;;5035592;28;20410;-81
2023/11/19 13:15:39;;;;;;;1.60;1.10;;;;;;;;;;5036787;28;20430;-81
2023/11/19 13:18:06;;;;;;;0.85;0.80;;;;;;;;;;5039215;28;20402;-81
2023/11/19 13:20:33;;;;;;;1.02;0.85;;;;;;;;;;5038413;28;20465;-80
2023/11/19 13:23:00;;;;;;;1.20;1.10;;;;;;;;;;5037891;28;20403;-81
2023/11/19 13:25:26;;;;;;;2.60;0.70;;;;;;;;;;5039070;28;20555;-80
2023/11/19 13:27:52;;;;;;;0.80;0.80;;;;;;;;;;5039113;28;20378;-80
2023/11/19 13:30:18;;;;;;;1.60;1.20;;;;;;;;;;5038304;28;20402;-81
2023/11/19 13:32:46;;;;;;;1.60;1.20;;;;;;;;;;5039031;28;20436;-81
2023/11/19 13:35:12;;;;;;;1.40;1.30;;;;;;;;;;5038835;28;20470;-81
2023/11/19 13:37:38;;;;;;;1.20;1.10;;;;;;;;;;5021050;28;20395;-81
2023/11/19 13:40:04;;;;;;;1.50;1.40;;;;;;;;;;5038776;28;20395;-81
2023/11/19 13:42:30;;;;;;;1.50;1.23;;;;;;;;;;5038470;28;20893;-80
2023/11/19 13:44:56;;;;;;;1.60;0.85;;;;;;;;;;5039380;28;20403;-80
2023/11/19 13:47:23;;;;;;;1.55;1.45;;;;;;;;;;5039043;28;20387;-80
2023/11/19 13:49:49;;;;;;;2.63;0.90;;;;;;;;;;5038811;28;20871;-80
2023/11/19 13:52:15;;;;;;;1.57;0.80;;;;;;;;;;5039567;28;20402;-80
2023/11/19 13:54:41;;;;;;;1.85;0.82;;;;;;;;;;5039416;28;20495;-80
2023/11/19 13:57:07;;;;;;;0.95;0.80;;;;;;;;;;5038758;28;20376;-81
2023/11/19 13:59:33;;;;;;;1.20;1.00;;;;;;;;;;5038143;28;20433;-80
2023/11/19 14:01:59;;;;;;;1.35;0.95;;;;;;;;;;5037141;28;20496;-80
2023/11/19 14:04:25;;;;;;;1.38;1.13;;;;;;;;;;5035207;28;20837;-80
2023/11/19 14:06:52;;;;;;;2.80;1.20;;;;;;;;;;5037737;28;20391;-80
2023/11/19 14:09:18;;;;;;;1.20;1.10;;;;;;;;;;5037593;28;20415;-80
2023/11/19 14:11:45;;;;;;;1.40;0.90;;;;;;;;;;5037431;28;20387;-80
2023/11/19 14:14:10;;;;;;;1.00;0.63;;;;;;;;;;5038269;28;20397;-80
2023/11/19 14:16:37;;;;;;;0.95;0.80;;;;;;;;;;5037727;28;20753;-81
2023/11/19 14:19:03;;;;;;;0.80;0.60;;;;;;;;;;5038516;28;20391;-80
2023/11/19 14:21:29;;;;;;;1.15;0.60;;;;;;;;;;5038432;28;20887;-80
2023/11/19 14:23:55;;;;;;;0.40;0.40;;;;;;;;;;5038672;28;20469;-80
2023/11/19 14:26:21;;;;;;;0.95;0.60;;;;;;;;;;5038163;28;20375;-80
2023/11/19 14:28:47;;;;;;;0.82;0.55;;;;;;;;;;5037712;28;20403;-80
2023/11/19 14:31:13;;;;;;;1.42;0.60;;;;;;;;;;5021112;28;20398;-81
2023/11/19 14:33:39;;;;;;;1.17;0.45;;;;;;;;;;5038783;28;20387;-80
2023/11/19 14:36:07;;;;;;;1.60;0.70;;;;;;;;;;5037195;28;20402;-81
2023/11/19 14:38:33;;;;;;;1.10;0.60;;;;;;;;;;5038313;28;20458;-80
2023/11/19 14:40:59;;;;;;;0.85;0.35;;;;;;;;;;5037742;28;20430;-80